createdAt,value
2023-01-28T00:01:43.138Z,3.70
2023-01-28T00:04:12.090Z,4.30
2023-01-28T00:06:40.689Z,4.50
2023-01-28T00:09:09.319Z,5.20
2023-01-28T00:11:38.055Z,4.87
2023-01-28T00:14:07.711Z,3.60
2023-01-28T00:16:37.655Z,4.47
2023-01-28T00:19:06.175Z,4.10
2023-01-28T00:21:34.732Z,4.23
2023-01-28T00:24:03.455Z,3.53
2023-01-28T00:26:32.041Z,3.97
2023-01-28T00:29:00.577Z,5.43
2023-01-28T00:31:29.507Z,4.63
2023-01-28T00:33:59.456Z,4.53
2023-01-28T00:36:28.909Z,3.97
2023-01-28T00:38:59.688Z,4.07
2023-01-28T00:41:30.102Z,4.37
2023-01-28T00:44:00.415Z,5.30
2023-01-28T00:46:30.103Z,5.10
2023-01-28T00:48:59.973Z,4.73
2023-01-28T00:51:28.559Z,4.23
2023-01-28T00:53:57.156Z,4.73
2023-01-28T00:56:25.748Z,3.47
2023-01-28T00:58:54.578Z,4.37
2023-01-28T01:01:25.186Z,4.13
2023-01-28T01:03:57.882Z,6.50
2023-01-28T01:06:27.895Z,3.50
2023-01-28T01:08:56.385Z,3.40
2023-01-28T01:11:25.107Z,8.87
2023-01-28T01:13:56.964Z,4.77
2023-01-28T01:16:28.343Z,4.97
2023-01-28T01:18:57.958Z,3.47
2023-01-28T01:21:29.734Z,4.43
2023-01-28T01:23:58.443Z,3.83
2023-01-28T01:26:27.578Z,3.63
2023-01-28T01:28:58.947Z,3.93
2023-01-28T01:31:27.551Z,3.87
2023-01-28T01:33:56.143Z,4.00
2023-01-28T01:36:24.693Z,3.87
2023-01-28T01:38:56.572Z,3.70
2023-01-28T01:41:29.087Z,4.03
2023-01-28T01:44:00.241Z,3.33
2023-01-28T01:46:37.641Z,4.13
2023-01-28T01:49:15.109Z,4.30
2023-01-28T01:51:47.016Z,3.80
2023-01-28T01:54:18.813Z,3.47
2023-01-28T01:56:50.272Z,3.90
2023-01-28T01:59:24.106Z,4.30
2023-01-28T02:01:53.758Z,4.23
2023-01-28T02:04:26.589Z,3.40
2023-01-28T02:06:55.354Z,4.00
2023-01-28T02:09:27.737Z,4.23
2023-01-28T02:11:58.193Z,3.87
2023-01-28T02:14:31.675Z,4.63
2023-01-28T02:17:02.091Z,4.27
2023-01-28T02:19:38.305Z,3.73
2023-01-28T02:22:16.696Z,3.87
2023-01-28T02:25:15.962Z,4.20
2023-01-28T02:28:13.519Z,4.07
2023-01-28T02:30:46.063Z,4.23
2023-01-28T02:33:19.690Z,4.43
2023-01-28T02:35:51.302Z,3.70
2023-01-28T02:38:25.305Z,4.87
2023-01-28T02:41:05.908Z,4.73
2023-01-28T02:43:38.436Z,3.83
2023-01-28T02:46:34.822Z,4.93
2023-01-28T02:49:06.811Z,3.80
2023-01-28T02:51:47.898Z,4.50
2023-01-28T02:54:27.485Z,4.93
2023-01-28T02:57:07.491Z,4.03
2023-01-28T02:59:43.361Z,3.63
2023-01-28T03:02:20.926Z,3.97
2023-01-28T03:04:56.025Z,4.50
2023-01-28T03:07:27.671Z,4.37
2023-01-28T03:09:59.166Z,4.00
2023-01-28T03:12:47.526Z,4.40
2023-01-28T03:15:38.405Z,4.50
2023-01-28T03:18:28.645Z,4.30
2023-01-28T03:21:23.405Z,5.23
2023-01-28T03:24:15.443Z,5.80
2023-01-28T03:27:06.645Z,5.33
2023-01-28T03:29:55.243Z,5.37
2023-01-28T03:32:42.989Z,6.23
2023-01-28T03:35:35.141Z,5.97
2023-01-28T03:38:18.941Z,5.43
2023-01-28T03:40:51.895Z,4.77
2023-01-28T03:43:21.352Z,5.03
2023-01-28T03:45:51.625Z,6.37
2023-01-28T03:48:23.464Z,6.17
2023-01-28T03:50:52.866Z,4.70
2023-01-28T03:53:21.901Z,4.07
2023-01-28T03:55:54.120Z,5.00
2023-01-28T03:58:27.355Z,5.03
2023-01-28T04:00:56.388Z,4.97
2023-01-28T04:03:27.218Z,4.93
2023-01-28T04:06:01.202Z,4.07
2023-01-28T04:08:49.280Z,5.43
2023-01-28T04:11:36.360Z,4.90
2023-01-28T04:14:07.203Z,5.80
2023-01-28T04:16:58.907Z,5.47
2023-01-28T04:19:37.426Z,4.27
2023-01-28T04:22:09.086Z,5.30
2023-01-28T04:24:37.847Z,5.60
2023-01-28T04:27:06.629Z,7.20
2023-01-28T04:29:35.234Z,5.70
2023-01-28T04:32:23.563Z,7.60
2023-01-28T04:35:24.199Z,6.73
2023-01-28T04:38:15.606Z,5.67
2023-01-28T04:41:04.450Z,4.27
2023-01-28T04:43:35.500Z,5.07
2023-01-28T04:46:22.563Z,4.97
2023-01-28T04:49:03.687Z,5.30
2023-01-28T04:51:48.708Z,6.47
2023-01-28T04:54:35.048Z,4.67
2023-01-28T04:57:05.575Z,5.70
2023-01-28T04:59:34.255Z,4.83
2023-01-28T05:02:03.661Z,4.90
2023-01-28T05:04:32.415Z,4.63
2023-01-28T05:07:02.563Z,4.57
2023-01-28T05:09:35.517Z,4.40
2023-01-28T05:12:04.388Z,6.07
2023-01-28T05:14:34.716Z,5.67
2023-01-28T05:17:08.436Z,6.07
2023-01-28T05:19:37.211Z,6.60
2023-01-28T05:22:11.186Z,6.90
2023-01-28T05:24:44.069Z,5.93
2023-01-28T05:27:12.709Z,6.10
2023-01-28T05:29:42.170Z,9.47
2023-01-28T05:32:11.039Z,9.40
2023-01-28T05:34:39.712Z,9.97
2023-01-28T05:37:14.220Z,10.90
2023-01-28T05:39:42.925Z,7.87
2023-01-28T05:42:11.519Z,6.93
2023-01-28T05:44:45.734Z,7.33
2023-01-28T05:47:20.296Z,9.87
2023-01-28T05:50:15.661Z,10.33
2023-01-28T05:53:08.976Z,5.80
2023-01-28T05:55:39.246Z,7.87
2023-01-28T05:58:07.807Z,6.87
2023-01-28T06:00:36.985Z,6.50
2023-01-28T06:03:06.687Z,6.67
2023-01-28T06:05:37.211Z,6.40
2023-01-28T06:08:06.816Z,7.27
2023-01-28T06:10:36.782Z,7.07
2023-01-28T06:13:06.042Z,8.40
2023-01-28T06:15:41.568Z,6.97
2023-01-28T06:18:24.660Z,6.40
2023-01-28T06:20:54.105Z,6.97
2023-01-28T06:23:22.598Z,8.40
2023-01-28T06:25:56.559Z,6.20
2023-01-28T06:28:26.766Z,6.90
2023-01-28T06:30:55.531Z,5.70
2023-01-28T06:33:24.507Z,8.37
2023-01-28T06:35:53.077Z,8.10
2023-01-28T06:38:21.781Z,8.33
2023-01-28T06:40:53.482Z,7.87
2023-01-28T06:43:27.851Z,7.93
2023-01-28T06:45:56.901Z,8.10
2023-01-28T06:48:25.755Z,7.67
2023-01-28T06:50:54.706Z,5.67
2023-01-28T06:53:23.595Z,9.50
2023-01-28T06:55:52.789Z,7.83
2023-01-28T06:58:21.305Z,8.00
2023-01-28T07:00:51.185Z,6.07
2023-01-28T07:03:19.727Z,6.83
2023-01-28T07:05:48.933Z,6.33
2023-01-28T07:08:17.392Z,7.30
2023-01-28T07:10:46.172Z,6.30
2023-01-28T07:13:14.579Z,8.13
2023-01-28T07:15:43.467Z,8.43
2023-01-28T07:18:13.369Z,8.70
2023-01-28T07:20:41.926Z,7.00
2023-01-28T07:23:10.451Z,7.20
2023-01-28T07:25:38.996Z,6.47
2023-01-28T07:28:07.778Z,5.90
2023-01-28T07:30:36.244Z,7.90
2023-01-28T07:33:05.968Z,6.73
2023-01-28T07:35:35.915Z,9.00
2023-01-28T07:38:04.513Z,7.10
2023-01-28T07:40:33.068Z,6.80
2023-01-28T07:43:01.597Z,7.17
2023-01-28T07:45:37.980Z,13.43
2023-01-28T07:48:09.408Z,8.43
2023-01-28T07:50:40.339Z,8.73
2023-01-28T07:53:10.907Z,9.67
2023-01-28T07:55:40.289Z,6.97
2023-01-28T07:58:12.197Z,7.53
2023-01-28T08:00:41.004Z,7.77
2023-01-28T08:03:14.125Z,6.63
2023-01-28T08:05:46.805Z,7.20
2023-01-28T08:08:16.732Z,8.13
2023-01-28T08:10:45.657Z,7.10
2023-01-28T08:13:15.776Z,7.03
2023-01-28T08:15:44.558Z,9.27
2023-01-28T08:18:15.070Z,7.80
2023-01-28T08:20:47.443Z,7.63
2023-01-28T08:23:17.406Z,6.77
2023-01-28T08:25:46.467Z,8.00
2023-01-28T08:28:16.301Z,6.57
2023-01-28T08:30:45.064Z,6.93
2023-01-28T08:33:15.093Z,8.00
2023-01-28T08:35:46.672Z,7.60
2023-01-28T08:38:17.859Z,7.37
2023-01-28T08:40:46.590Z,6.90
2023-01-28T08:43:15.039Z,6.27
2023-01-28T08:45:43.778Z,5.13
2023-01-28T08:48:16.215Z,6.67
2023-01-28T08:50:46.908Z,9.20
2023-01-28T08:53:16.984Z,7.50
2023-01-28T08:55:46.955Z,8.03
2023-01-28T08:58:17.075Z,6.27
2023-01-28T09:00:46.659Z,6.87
2023-01-28T09:03:15.072Z,6.83
2023-01-28T09:05:44.005Z,13.57
2023-01-28T09:08:15.548Z,8.60
2023-01-28T09:10:44.580Z,10.00
2023-01-28T09:13:15.364Z,7.87
2023-01-28T09:15:44.218Z,4.82
2023-01-28T09:18:12.816Z,5.00
2023-01-28T09:20:42.330Z,6.70
2023-01-28T09:23:11.588Z,9.97
2023-01-28T09:25:41.584Z,6.77
2023-01-28T09:28:10.401Z,8.07
2023-01-28T09:30:39.979Z,6.33
2023-01-28T09:33:08.863Z,5.53
2023-01-28T09:35:38.074Z,9.20
2023-01-28T09:38:07.167Z,6.40
2023-01-28T09:40:38.955Z,5.93
2023-01-28T09:43:38.574Z,10.67
2023-01-28T09:46:08.737Z,6.30
2023-01-28T09:48:41.897Z,9.90
2023-01-28T09:51:12.636Z,6.43
2023-01-28T09:53:48.996Z,8.73
2023-01-28T09:56:26.959Z,5.97
2023-01-28T09:58:58.317Z,8.40
2023-01-28T10:01:40.687Z,5.67
2023-01-28T10:04:23.396Z,6.23
2023-01-28T10:07:01.486Z,6.93
2023-01-28T10:09:41.486Z,11.50
2023-01-28T10:12:29.175Z,5.53
2023-01-28T10:15:26.252Z,8.33
2023-01-28T10:18:14.679Z,6.60
2023-01-28T10:20:49.211Z,6.87
2023-01-28T10:23:22.612Z,6.57
2023-01-28T10:25:51.373Z,7.63
2023-01-28T10:28:23.279Z,4.83
2023-01-28T10:30:53.614Z,5.63
2023-01-28T10:33:25.090Z,5.53
2023-01-28T10:35:53.791Z,5.83
2023-01-28T10:38:24.747Z,5.67
2023-01-28T10:40:53.526Z,4.37
2023-01-28T10:43:26.321Z,2.90
2023-01-28T10:46:02.591Z,3.63
2023-01-28T10:48:35.207Z,3.57
2023-01-28T10:51:06.570Z,3.60
2023-01-28T10:53:37.136Z,4.03
2023-01-28T10:56:07.730Z,3.30
2023-01-28T10:58:48.213Z,3.03
2023-01-28T11:01:24.719Z,3.60
2023-01-28T11:04:00.336Z,2.60
2023-01-28T11:06:30.618Z,3.43
2023-01-28T11:09:01.243Z,2.90
2023-01-28T11:11:31.033Z,3.23
2023-01-28T11:14:01.425Z,3.07
2023-01-28T11:16:31.504Z,3.30
2023-01-28T11:19:05.216Z,4.17
2023-01-28T11:21:35.769Z,3.77
2023-01-28T11:24:07.146Z,3.53
2023-01-28T11:26:38.717Z,3.40
2023-01-28T11:29:08.126Z,3.33
2023-01-28T11:31:44.694Z,4.40
2023-01-28T11:34:19.254Z,4.87
2023-01-28T11:36:55.277Z,3.23
2023-01-28T11:39:26.233Z,3.00
2023-01-28T11:41:55.389Z,2.70
2023-01-28T11:44:25.596Z,3.00
2023-01-28T11:47:10.660Z,4.10
2023-01-28T11:49:55.321Z,4.40
2023-01-28T11:52:55.342Z,2.90
2023-01-28T11:55:39.237Z,5.90
2023-01-28T11:58:20.395Z,5.37
2023-01-28T12:00:57.241Z,3.57
2023-01-28T12:03:48.380Z,3.70
2023-01-28T12:06:30.056Z,3.93
2023-01-28T12:09:08.000Z,3.73
2023-01-28T12:12:07.355Z,4.00
2023-01-28T12:14:49.379Z,3.13
2023-01-28T12:17:32.729Z,4.57
2023-01-28T12:20:19.689Z,5.20
2023-01-28T12:23:26.749Z,4.03
2023-01-28T12:26:07.947Z,3.37
2023-01-28T12:28:58.138Z,5.37
2023-01-28T12:31:56.767Z,3.27
2023-01-28T12:34:53.792Z,3.53
2023-01-28T12:37:33.531Z,5.83
2023-01-28T12:40:17.941Z,3.10
2023-01-28T12:42:52.405Z,5.37
2023-01-28T12:45:27.230Z,5.67
2023-01-28T12:48:02.452Z,4.73
2023-01-28T12:50:35.059Z,3.40
2023-01-28T12:53:21.761Z,4.20
2023-01-28T12:55:55.593Z,3.30
2023-01-28T12:58:36.921Z,2.80
2023-01-28T13:01:10.937Z,2.00
2023-01-28T13:03:47.216Z,2.83
2023-01-28T13:06:21.369Z,2.90
2023-01-28T13:08:53.183Z,2.70
2023-01-28T13:11:22.449Z,2.50
2023-01-28T13:13:51.457Z,2.50
2023-01-28T13:16:28.674Z,3.13
2023-01-28T13:19:10.437Z,3.30
2023-01-28T13:21:48.617Z,3.00
2023-01-28T13:24:31.839Z,2.93
2023-01-28T13:27:00.483Z,2.93
2023-01-28T13:29:33.371Z,2.87
2023-01-28T13:32:04.342Z,3.33
2023-01-28T13:34:36.777Z,3.23
2023-01-28T13:37:18.015Z,3.70
2023-01-28T13:39:52.378Z,3.83
2023-01-28T13:42:27.065Z,5.20
2023-01-28T13:44:56.408Z,2.97
2023-01-28T13:47:31.409Z,5.37
2023-01-28T13:50:03.891Z,4.77
2023-01-28T13:52:38.000Z,3.93
2023-01-28T13:55:37.174Z,3.73
2023-01-28T13:58:37.393Z,4.20
2023-01-28T14:01:31.945Z,3.23
2023-01-28T14:04:32.413Z,4.40
2023-01-28T14:07:11.503Z,3.87
2023-01-28T14:10:07.060Z,3.73
2023-01-28T14:13:16.840Z,2.80
2023-01-28T14:16:01.764Z,3.63
2023-01-28T14:18:35.097Z,3.67
2023-01-28T14:21:05.983Z,3.57
2023-01-28T14:23:35.779Z,4.83
2023-01-28T14:26:17.823Z,3.57
2023-01-28T14:28:54.900Z,4.63
2023-01-28T14:31:29.373Z,3.97
2023-01-28T14:34:06.541Z,4.30
2023-01-28T14:36:39.252Z,3.63
2023-01-28T14:39:13.775Z,4.13
2023-01-28T14:41:45.569Z,3.53
2023-01-28T14:44:26.656Z,3.33
2023-01-28T14:47:08.932Z,3.53
2023-01-28T14:49:49.187Z,3.17
2023-01-28T14:52:43.022Z,4.07
2023-01-28T14:55:28.424Z,3.97
2023-01-28T14:58:00.155Z,3.73
2023-01-28T15:00:30.603Z,4.87
2023-01-28T15:03:01.879Z,3.37
2023-01-28T15:05:32.011Z,4.30
2023-01-28T15:08:01.597Z,3.97
2023-01-28T15:10:33.092Z,4.37
2023-01-28T15:13:07.638Z,5.60
2023-01-28T15:15:38.393Z,7.17
2023-01-28T15:18:15.413Z,5.67
2023-01-28T15:20:46.487Z,3.37
2023-01-28T15:23:18.584Z,3.80
2023-01-28T15:25:47.286Z,4.10
2023-01-28T15:28:25.671Z,3.67
2023-01-28T15:30:54.556Z,4.43
2023-01-28T15:33:25.641Z,5.03
2023-01-28T15:35:56.003Z,5.13
2023-01-28T15:38:25.807Z,5.13
2023-01-28T15:40:58.475Z,5.00
2023-01-28T15:43:30.355Z,4.97
2023-01-28T15:46:00.576Z,6.23
2023-01-28T15:48:33.696Z,5.40
2023-01-28T15:51:05.564Z,5.63
2023-01-28T15:53:37.876Z,6.77
2023-01-28T15:56:11.589Z,4.40
2023-01-28T15:58:42.602Z,6.27
2023-01-28T16:01:19.965Z,3.90
2023-01-28T16:04:02.794Z,4.70
2023-01-28T16:06:36.051Z,7.73
2023-01-28T16:09:07.712Z,7.03
2023-01-28T16:11:44.949Z,5.57
2023-01-28T16:14:26.398Z,6.10
2023-01-28T16:16:56.213Z,5.57
2023-01-28T16:19:34.590Z,5.53
2023-01-28T16:22:03.878Z,5.03
2023-01-28T16:24:36.538Z,6.03
2023-01-28T16:27:07.696Z,5.00
2023-01-28T16:29:37.346Z,7.20
2023-01-28T16:32:06.087Z,5.40
2023-01-28T16:34:36.031Z,4.30
2023-01-28T16:37:10.531Z,8.47
2023-01-28T16:39:39.153Z,6.90
2023-01-28T16:42:07.620Z,5.07
2023-01-28T16:44:36.176Z,7.03
2023-01-28T16:47:06.685Z,11.17
2023-01-28T16:49:37.445Z,5.90
2023-01-28T16:52:07.364Z,4.03
2023-01-28T16:54:36.281Z,4.53
2023-01-28T16:57:04.957Z,3.70
2023-01-28T16:59:33.689Z,4.10
2023-01-28T17:02:02.368Z,4.37
2023-01-28T17:04:30.830Z,4.00
2023-01-28T17:07:02.503Z,4.50
2023-01-28T17:09:34.398Z,5.93
2023-01-28T17:12:04.589Z,4.40
2023-01-28T17:14:33.142Z,4.23
2023-01-28T17:17:01.710Z,5.20
2023-01-28T17:19:31.251Z,4.23
2023-01-28T17:22:01.148Z,4.00
2023-01-28T17:24:31.215Z,5.00
2023-01-28T17:26:59.967Z,5.53
2023-01-28T17:29:32.959Z,6.40
2023-01-28T17:32:01.686Z,5.30
2023-01-28T17:34:30.189Z,3.37
2023-01-28T17:36:58.688Z,3.10
2023-01-28T17:39:28.640Z,3.77
2023-01-28T17:41:57.188Z,4.57
2023-01-28T17:44:25.676Z,5.03
2023-01-28T17:46:54.265Z,4.63
2023-01-28T17:49:22.782Z,4.47
2023-01-28T17:51:53.406Z,3.00
2023-01-28T17:54:22.097Z,3.50
2023-01-28T17:56:52.096Z,5.20
2023-01-28T17:59:22.657Z,3.87
2023-01-28T18:01:54.916Z,5.37
2023-01-28T18:04:23.552Z,3.77
2023-01-28T18:06:52.003Z,3.50
2023-01-28T18:09:21.021Z,3.50
2023-01-28T18:11:49.639Z,3.97
2023-01-28T18:14:20.166Z,4.43
2023-01-28T18:16:48.586Z,3.20
2023-01-28T18:19:17.594Z,4.83
2023-01-28T18:21:53.092Z,14.40
2023-01-28T18:24:24.065Z,31.40
2023-01-28T18:26:55.596Z,25.73
2023-01-28T18:29:25.743Z,12.77
2023-01-28T18:31:55.740Z,4.50
2023-01-28T18:34:25.597Z,3.30
2023-01-28T18:36:54.782Z,6.93
2023-01-28T18:39:23.504Z,9.93
2023-01-28T18:41:55.002Z,6.57
2023-01-28T18:44:26.572Z,4.20
2023-01-28T18:46:55.654Z,7.70
2023-01-28T18:49:24.297Z,26.47
2023-01-28T18:51:52.874Z,16.43
2023-01-28T18:54:21.639Z,11.70
2023-01-28T18:56:50.913Z,12.33
2023-01-28T18:59:19.949Z,6.03
2023-01-28T19:01:49.988Z,3.93
2023-01-28T19:04:19.221Z,29.23
2023-01-28T19:06:49.364Z,3.83
2023-01-28T19:09:19.344Z,3.60
2023-01-28T19:11:48.482Z,4.70
2023-01-28T19:14:17.953Z,3.33
2023-01-28T19:16:46.847Z,2.83
2023-01-28T19:19:17.569Z,3.53
2023-01-28T19:21:46.336Z,5.37
2023-01-28T19:24:18.625Z,3.00
2023-01-28T19:26:47.223Z,3.83
2023-01-28T19:29:16.441Z,3.73
2023-01-28T19:31:48.981Z,4.10
2023-01-28T19:34:19.974Z,3.53
2023-01-28T19:36:48.753Z,4.03
2023-01-28T19:39:18.015Z,3.67
2023-01-28T19:41:46.694Z,8.47
2023-01-28T19:44:18.470Z,6.03
2023-01-28T19:46:46.984Z,3.53
2023-01-28T19:49:15.797Z,4.60
2023-01-28T19:51:45.790Z,8.93
2023-01-28T19:54:14.846Z,4.53
2023-01-28T19:56:43.376Z,6.73
2023-01-28T19:59:12.963Z,3.07
2023-01-28T20:01:41.530Z,2.97
2023-01-28T20:04:10.228Z,3.37
2023-01-28T20:06:38.933Z,3.03
2023-01-28T20:09:15.301Z,6.50
2023-01-28T20:11:44.063Z,2.83
2023-01-28T20:14:14.694Z,2.73
2023-01-28T20:16:43.481Z,3.13
2023-01-28T20:19:16.104Z,4.60
2023-01-28T20:21:45.559Z,3.87
2023-01-28T20:24:17.486Z,4.57
2023-01-28T20:26:46.597Z,5.27
2023-01-28T20:29:18.830Z,4.20
2023-01-28T20:32:00.908Z,4.17
2023-01-28T20:34:36.473Z,6.00
2023-01-28T20:37:06.723Z,3.50
2023-01-28T20:39:36.847Z,4.23
2023-01-28T20:42:06.461Z,5.60
2023-01-28T20:44:34.979Z,6.93
2023-01-28T20:47:03.840Z,5.73
2023-01-28T20:49:32.350Z,6.13
2023-01-28T20:52:00.832Z,4.43
2023-01-28T20:54:29.401Z,4.00
2023-01-28T20:56:59.245Z,7.67
2023-01-28T20:59:29.331Z,7.50
2023-01-28T21:01:57.767Z,11.53
2023-01-28T21:04:26.243Z,6.77
2023-01-28T21:06:54.943Z,9.57
2023-01-28T21:09:25.595Z,16.57
2023-01-28T21:11:54.131Z,13.98
2023-01-28T21:14:24.068Z,11.67
2023-01-28T21:16:53.304Z,11.00
2023-01-28T21:19:21.866Z,9.30
2023-01-28T21:21:50.279Z,7.53
2023-01-28T21:24:19.414Z,8.17
2023-01-28T21:26:47.897Z,7.10
2023-01-28T21:29:18.181Z,6.73
2023-01-28T21:31:48.158Z,6.47
2023-01-28T21:34:17.860Z,6.60
2023-01-28T21:36:46.445Z,19.13
2023-01-28T21:39:15.027Z,7.90
2023-01-28T21:41:43.556Z,4.13
2023-01-28T21:44:13.213Z,7.17
2023-01-28T21:46:41.861Z,6.43
2023-01-28T21:49:12.968Z,5.50
2023-01-28T21:51:46.393Z,5.33
2023-01-28T21:54:18.008Z,6.00
2023-01-28T21:56:47.079Z,5.53
2023-01-28T21:59:32.706Z,6.53
2023-01-28T22:02:02.862Z,12.30
2023-01-28T22:04:35.141Z,6.43
2023-01-28T22:07:04.555Z,5.37
2023-01-28T22:09:33.822Z,6.43
2023-01-28T22:12:03.745Z,8.50
2023-01-28T22:14:32.424Z,12.17
2023-01-28T22:17:01.074Z,7.70
2023-01-28T22:19:29.598Z,6.00
2023-01-28T22:21:59.420Z,5.27
2023-01-28T22:24:29.486Z,4.60
2023-01-28T22:26:58.573Z,4.70
2023-01-28T22:29:27.246Z,6.13
2023-01-28T22:31:56.368Z,8.60
2023-01-28T22:34:25.140Z,5.73
2023-01-28T22:36:53.608Z,7.10
2023-01-28T22:39:23.494Z,12.70
2023-01-28T22:41:52.064Z,7.47
2023-01-28T22:44:21.235Z,4.77
2023-01-28T22:46:50.035Z,9.30
2023-01-28T22:49:19.888Z,5.33
2023-01-28T22:51:48.361Z,3.63
2023-01-28T22:54:17.379Z,3.00
2023-01-28T22:56:48.125Z,5.43
2023-01-28T22:59:17.891Z,5.10
2023-01-28T23:01:47.077Z,6.40
2023-01-28T23:04:15.628Z,6.43
2023-01-28T23:06:44.070Z,8.63
2023-01-28T23:09:12.587Z,4.87
2023-01-28T23:11:41.135Z,6.40
2023-01-28T23:14:29.525Z,5.47
2023-01-28T23:17:27.020Z,6.07
2023-01-28T23:20:13.044Z,10.37
2023-01-28T23:22:59.250Z,9.63
2023-01-28T23:25:27.811Z,14.57
2023-01-28T23:27:56.251Z,19.90
2023-01-28T23:30:26.289Z,31.83
2023-01-28T23:32:57.758Z,23.27
2023-01-28T23:35:27.173Z,17.07
2023-01-28T23:37:56.698Z,10.50
2023-01-28T23:40:27.339Z,6.07
2023-01-28T23:42:56.756Z,7.77
2023-01-28T23:45:27.769Z,9.57
2023-01-28T23:47:56.303Z,8.10
2023-01-28T23:50:24.807Z,9.23
2023-01-28T23:52:53.373Z,10.77
2023-01-28T23:55:21.916Z,11.60
2023-01-28T23:57:50.545Z,7.63
